createdAt,value
2023-04-21T00:01:56.653Z,7.20
2023-04-21T00:04:26.039Z,7.20
2023-04-21T00:06:54.589Z,7.20
2023-04-21T00:09:22.638Z,7.20
2023-04-21T00:11:50.530Z,7.20
2023-04-21T00:14:18.720Z,7.20
2023-04-21T00:16:47.181Z,7.20
2023-04-21T00:19:15.452Z,7.20
2023-04-21T00:21:44.879Z,7.20
2023-04-21T00:24:12.717Z,7.20
2023-04-21T00:26:40.469Z,7.20
2023-04-21T00:29:08.296Z,7.20
2023-04-21T00:31:36.130Z,7.20
2023-04-21T00:34:03.984Z,7.20
2023-04-21T00:36:32.170Z,7.20
2023-04-21T00:39:01.252Z,7.20
2023-04-21T00:41:29.686Z,7.20
2023-04-21T00:44:04.848Z,7.10
2023-04-21T00:46:33.326Z,7.10
2023-04-21T00:49:04.038Z,7.10
2023-04-21T00:51:33.183Z,7.10
2023-04-21T00:54:03.784Z,7.10
2023-04-21T00:56:33.405Z,7.10
2023-04-21T00:59:02.039Z,7.10
2023-04-21T01:01:30.802Z,7.10
2023-04-21T01:04:00.186Z,7.10
2023-04-21T01:06:30.024Z,7.20
2023-04-21T01:08:57.991Z,7.20
2023-04-21T01:11:27.329Z,7.10
2023-04-21T01:13:55.678Z,7.20
2023-04-21T01:16:24.919Z,7.10
2023-04-21T01:18:53.324Z,7.10
2023-04-21T01:21:21.754Z,7.00
2023-04-21T01:23:50.928Z,7.10
2023-04-21T01:26:19.838Z,7.10
2023-04-21T01:28:48.777Z,7.20
2023-04-21T01:31:17.104Z,7.10
2023-04-21T01:33:45.346Z,7.10
2023-04-21T01:36:13.177Z,7.10
2023-04-21T01:38:43.687Z,7.20
2023-04-21T01:41:12.864Z,7.20
2023-04-21T01:43:40.679Z,7.10
2023-04-21T01:46:08.924Z,7.10
2023-04-21T01:48:38.303Z,7.10
2023-04-21T01:51:06.257Z,7.10
2023-04-21T01:53:34.018Z,7.10
2023-04-21T01:56:01.784Z,7.20
2023-04-21T01:58:31.061Z,7.20
2023-04-21T02:00:58.859Z,7.10
2023-04-21T02:03:27.264Z,7.20
2023-04-21T02:05:55.272Z,7.20
2023-04-21T02:08:23.093Z,7.20
2023-04-21T02:10:51.027Z,7.20
2023-04-21T02:13:18.787Z,7.10
2023-04-21T02:15:47.919Z,7.10
2023-04-21T02:18:16.743Z,7.10
2023-04-21T02:20:44.699Z,7.20
2023-04-21T02:23:12.485Z,7.10
2023-04-21T02:25:40.275Z,7.10
2023-04-21T02:28:08.054Z,7.20
2023-04-21T02:30:35.925Z,7.10
2023-04-21T02:33:05.177Z,7.00
2023-04-21T02:35:33.591Z,7.10
2023-04-21T02:38:07.048Z,7.20
2023-04-21T02:40:34.846Z,7.10
2023-04-21T02:43:02.901Z,7.10
2023-04-21T02:45:30.856Z,7.10
2023-04-21T02:47:59.312Z,7.20
2023-04-21T02:50:28.609Z,7.10
2023-04-21T02:52:56.492Z,7.10
2023-04-21T02:55:24.862Z,7.10
2023-04-21T02:57:52.720Z,7.10
2023-04-21T03:00:20.912Z,7.00
2023-04-21T03:02:48.884Z,7.10
2023-04-21T03:05:17.544Z,7.00
2023-04-21T03:07:47.588Z,7.00
2023-04-21T03:10:15.431Z,7.00
2023-04-21T03:12:43.234Z,7.00
2023-04-21T03:15:11.329Z,7.00
2023-04-21T03:17:39.251Z,6.90
2023-04-21T03:20:08.618Z,6.90
2023-04-21T03:22:36.589Z,6.90
2023-04-21T03:25:07.117Z,6.80
2023-04-21T03:27:35.453Z,6.90
2023-04-21T03:30:03.281Z,6.90
2023-04-21T03:32:31.179Z,6.90
2023-04-21T03:34:58.932Z,6.90
2023-04-21T03:37:26.853Z,6.80
2023-04-21T03:39:54.594Z,6.80
2023-04-21T03:42:23.776Z,6.90
2023-04-21T03:44:51.625Z,6.90
2023-04-21T03:47:19.412Z,6.90
2023-04-21T03:49:47.227Z,6.90
2023-04-21T03:52:15.079Z,6.90
2023-04-21T03:54:42.812Z,6.90
2023-04-21T03:57:10.561Z,6.90
2023-04-21T03:59:39.715Z,6.80
2023-04-21T04:02:07.635Z,6.80
2023-04-21T04:04:36.585Z,6.80
2023-04-21T04:07:04.965Z,6.80
2023-04-21T04:09:32.734Z,6.80
2023-04-21T04:12:01.504Z,6.70
2023-04-21T04:14:29.345Z,6.70
2023-04-21T04:16:59.888Z,6.80
2023-04-21T04:19:31.855Z,6.80
2023-04-21T04:22:00.554Z,6.70
2023-04-21T04:24:28.773Z,6.70
2023-04-21T04:26:57.806Z,6.70
2023-04-21T04:29:25.653Z,6.70
2023-04-21T04:31:53.502Z,6.60
2023-04-21T04:34:24.464Z,6.60
2023-04-21T04:36:52.237Z,6.60
2023-04-21T04:39:20.390Z,6.50
2023-04-21T04:41:48.552Z,6.50
2023-04-21T04:44:18.042Z,6.50
2023-04-21T04:46:46.414Z,6.50
2023-04-21T04:49:15.357Z,6.50
2023-04-21T04:51:44.519Z,6.50
2023-04-21T04:54:12.316Z,6.50
2023-04-21T04:56:40.410Z,6.50
2023-04-21T04:59:08.300Z,6.50
2023-04-21T05:01:37.976Z,6.50
2023-04-21T05:04:06.050Z,6.50
2023-04-21T05:06:34.241Z,6.60
2023-04-21T05:09:04.809Z,6.60
2023-04-21T05:11:32.760Z,6.60
2023-04-21T05:14:00.776Z,6.70
2023-04-21T05:16:28.637Z,6.80
2023-04-21T05:18:56.870Z,6.80
2023-04-21T05:21:27.390Z,6.90
2023-04-21T05:23:55.393Z,6.90
2023-04-21T05:26:24.922Z,6.90
2023-04-21T05:28:52.702Z,7.00
2023-04-21T05:31:20.576Z,7.10
2023-04-21T05:33:48.358Z,7.10
2023-04-21T05:36:20.053Z,7.10
2023-04-21T05:38:47.951Z,7.10
2023-04-21T05:41:15.911Z,7.20
2023-04-21T05:43:45.246Z,7.20
2023-04-21T05:46:13.095Z,7.40
2023-04-21T05:48:41.549Z,7.40
2023-04-21T05:51:10.705Z,7.50
2023-04-21T05:53:38.820Z,7.50
2023-04-21T05:56:07.993Z,7.50
2023-04-21T05:58:35.866Z,7.60
2023-04-21T06:01:06.219Z,7.70
2023-04-21T06:03:34.779Z,7.90
2023-04-21T06:06:04.303Z,8.00
2023-04-21T06:08:32.160Z,8.00
2023-04-21T06:11:00.047Z,8.10
2023-04-21T06:13:28.111Z,8.30
2023-04-21T06:15:56.084Z,8.40
2023-04-21T06:18:27.607Z,8.50
2023-04-21T06:20:55.798Z,8.60
2023-04-21T06:23:23.897Z,8.70
2023-04-21T06:26:04.069Z,8.80
2023-04-21T06:28:32.425Z,8.90
2023-04-21T06:31:01.004Z,9.10
2023-04-21T06:33:30.705Z,9.10
2023-04-21T06:35:58.629Z,9.30
2023-04-21T06:38:26.441Z,9.50
2023-04-21T06:40:54.246Z,9.60
2023-04-21T06:43:22.010Z,9.70
2023-04-21T06:45:49.749Z,9.80
2023-04-21T06:48:17.599Z,10.10
2023-04-21T06:50:46.774Z,10.40
2023-04-21T06:53:14.509Z,10.70
2023-04-21T06:55:43.204Z,11.00
2023-04-21T06:58:11.208Z,11.00
2023-04-21T07:00:39.211Z,10.90
2023-04-21T07:03:07.473Z,10.90
2023-04-21T07:05:35.374Z,10.90
2023-04-21T07:08:04.553Z,11.00
2023-04-21T07:10:32.388Z,11.00
2023-04-21T07:13:00.173Z,10.90
2023-04-21T07:15:27.960Z,10.90
2023-04-21T07:17:55.846Z,10.90
2023-04-21T07:20:23.617Z,11.00
2023-04-21T07:22:51.394Z,10.90
2023-04-21T07:25:23.498Z,10.90
2023-04-21T07:27:51.288Z,11.00
2023-04-21T07:30:19.175Z,10.80
2023-04-21T07:32:47.152Z,10.90
2023-04-21T07:35:15.236Z,10.80
2023-04-21T07:37:43.002Z,10.70
2023-04-21T07:40:11.717Z,10.70
2023-04-21T07:42:41.366Z,10.70
2023-04-21T07:45:10.420Z,10.90
2023-04-21T07:47:38.295Z,11.10
2023-04-21T07:50:07.226Z,11.10
2023-04-21T07:52:35.047Z,11.30
2023-04-21T07:55:02.891Z,11.30
2023-04-21T07:57:31.831Z,11.30
2023-04-21T08:00:00.941Z,11.50
2023-04-21T08:02:28.771Z,11.70
2023-04-21T08:04:56.695Z,11.50
2023-04-21T08:07:24.557Z,11.80
2023-04-21T08:09:52.327Z,12.10
2023-04-21T08:12:20.118Z,12.10
2023-04-21T08:14:48.529Z,12.30
2023-04-21T08:17:17.694Z,12.70
2023-04-21T08:19:45.613Z,13.00
2023-04-21T08:22:13.464Z,13.20
2023-04-21T08:24:41.295Z,13.00
2023-04-21T08:27:09.102Z,13.10
2023-04-21T08:29:36.873Z,12.80
2023-04-21T08:32:04.739Z,13.00
2023-04-21T08:34:35.622Z,13.30
2023-04-21T08:37:03.503Z,13.10
2023-04-21T08:39:31.319Z,13.00
2023-04-21T08:42:01.526Z,12.80
2023-04-21T08:44:29.394Z,12.90
2023-04-21T08:46:59.582Z,13.00
2023-04-21T08:49:31.539Z,12.90
2023-04-21T08:52:02.212Z,12.90
2023-04-21T08:54:30.879Z,12.40
2023-04-21T08:57:11.815Z,12.50
2023-04-21T08:59:42.825Z,12.70
2023-04-21T09:02:12.477Z,13.20
2023-04-21T09:04:41.337Z,13.20
2023-04-21T09:07:10.911Z,13.50
2023-04-21T09:09:54.536Z,13.40
2023-04-21T09:12:23.161Z,13.60
2023-04-21T09:14:51.261Z,13.60
2023-04-21T09:17:21.718Z,13.30
2023-04-21T09:19:49.560Z,13.30
2023-04-21T09:22:19.032Z,13.10
2023-04-21T09:24:48.085Z,13.20
2023-04-21T09:27:17.494Z,13.50
2023-04-21T09:29:49.222Z,13.60
2023-04-21T09:32:20.780Z,13.80
2023-04-21T09:34:48.798Z,13.90
2023-04-21T09:37:19.147Z,13.80
2023-04-21T09:40:03.640Z,13.90
2023-04-21T09:42:37.076Z,13.90
2023-04-21T09:45:25.452Z,14.20
2023-04-21T09:47:59.363Z,14.30
2023-04-21T09:51:07.087Z,14.70
2023-04-21T09:53:22.002Z,14.90
2023-04-21T09:55:51.815Z,15.10
2023-04-21T09:58:24.559Z,15.30
2023-04-21T10:00:54.568Z,15.30
2023-04-21T10:03:28.029Z,15.30
2023-04-21T10:05:56.790Z,15.30
2023-04-21T10:08:26.154Z,15.20
2023-04-21T10:10:54.394Z,15.30
2023-04-21T10:13:23.418Z,15.50
2023-04-21T10:16:03.650Z,15.40
2023-04-21T10:18:31.719Z,15.60
2023-04-21T10:21:02.680Z,15.60
2023-04-21T10:23:39.271Z,15.60
2023-04-21T10:26:15.040Z,15.60
2023-04-21T10:28:45.018Z,15.50
2023-04-21T10:31:24.066Z,15.50
2023-04-21T10:34:28.642Z,15.40
2023-04-21T10:37:19.511Z,15.50
2023-04-21T10:39:54.537Z,15.60
2023-04-21T10:42:28.152Z,15.70
2023-04-21T10:45:06.510Z,15.40
2023-04-21T10:47:38.789Z,15.60
2023-04-21T10:50:29.622Z,15.60
2023-04-21T10:53:09.351Z,15.70
2023-04-21T10:55:39.872Z,15.80
2023-04-21T10:58:09.138Z,16.00
2023-04-21T11:00:39.156Z,16.00
2023-04-21T11:03:08.750Z,16.00
2023-04-21T11:05:39.328Z,16.10
2023-04-21T11:08:13.981Z,16.20
2023-04-21T11:10:48.948Z,16.30
2023-04-21T11:13:16.704Z,16.10
2023-04-21T11:16:07.072Z,16.30
2023-04-21T11:18:39.605Z,16.10
2023-04-21T11:21:17.854Z,16.10
2023-04-21T11:23:53.575Z,15.80
2023-04-21T11:26:33.260Z,15.70
2023-04-21T11:29:02.930Z,16.00
2023-04-21T11:31:31.541Z,15.90
2023-04-21T11:34:00.160Z,16.10
2023-04-21T11:36:29.231Z,15.90
2023-04-21T11:38:57.032Z,16.00
2023-04-21T11:41:25.900Z,16.10
2023-04-21T11:43:55.008Z,16.20
2023-04-21T11:46:25.522Z,16.40
2023-04-21T11:49:01.131Z,16.60
2023-04-21T11:51:34.009Z,16.70
2023-04-21T11:54:02.531Z,16.70
2023-04-21T11:56:30.420Z,16.70
2023-04-21T11:58:59.547Z,16.70
2023-04-21T12:01:28.166Z,16.60
2023-04-21T12:03:57.100Z,16.70
2023-04-21T12:06:27.016Z,17.00
2023-04-21T12:09:01.586Z,17.10
2023-04-21T12:11:29.544Z,17.00
2023-04-21T12:13:59.604Z,17.00
2023-04-21T12:16:28.389Z,16.90
2023-04-21T12:18:57.515Z,17.00
2023-04-21T12:21:28.564Z,17.10
2023-04-21T12:23:56.607Z,17.20
2023-04-21T12:26:24.727Z,17.10
2023-04-21T12:28:53.005Z,17.30
2023-04-21T12:31:22.142Z,17.30
2023-04-21T12:33:50.016Z,17.20
2023-04-21T12:36:18.282Z,17.30
2023-04-21T12:38:46.077Z,17.30
2023-04-21T12:41:13.929Z,17.20
2023-04-21T12:43:43.116Z,17.30
2023-04-21T12:46:11.115Z,17.40
2023-04-21T12:48:40.334Z,17.30
2023-04-21T12:51:14.887Z,17.30
2023-04-21T12:53:43.072Z,17.30
2023-04-21T12:56:11.192Z,17.40
2023-04-21T12:58:38.997Z,17.60
2023-04-21T13:01:07.157Z,17.70
2023-04-21T13:03:35.333Z,17.70
2023-04-21T13:06:04.811Z,17.80
2023-04-21T13:08:32.573Z,17.90
2023-04-21T13:11:00.393Z,18.00
2023-04-21T13:13:28.219Z,18.00
2023-04-21T13:15:55.983Z,17.90
2023-04-21T13:18:24.038Z,18.10
2023-04-21T13:20:51.900Z,18.00
2023-04-21T13:23:21.020Z,18.00
2023-04-21T13:25:50.700Z,17.90
2023-04-21T13:28:19.158Z,17.70
2023-04-21T13:30:47.055Z,17.60
2023-04-21T13:33:15.002Z,17.80
2023-04-21T13:35:42.902Z,17.90
2023-04-21T13:38:10.756Z,17.70
2023-04-21T13:40:39.968Z,17.80
2023-04-21T13:43:07.866Z,17.90
2023-04-21T13:45:35.710Z,18.00
2023-04-21T13:48:03.616Z,18.00
2023-04-21T13:50:31.576Z,18.00
2023-04-21T13:52:59.359Z,18.10
2023-04-21T13:55:27.218Z,18.00
2023-04-21T13:57:56.497Z,18.00
2023-04-21T14:00:24.607Z,18.10
2023-04-21T14:02:52.730Z,18.10
2023-04-21T14:05:21.040Z,18.10
2023-04-21T14:07:49.125Z,18.00
2023-04-21T14:10:16.991Z,18.10
2023-04-21T14:12:45.518Z,18.10
2023-04-21T14:15:14.993Z,18.00
2023-04-21T14:17:42.994Z,18.10
2023-04-21T14:20:11.910Z,18.10
2023-04-21T14:22:39.702Z,18.10
2023-04-21T14:25:08.001Z,18.20
2023-04-21T14:27:35.921Z,18.20
2023-04-21T14:30:03.787Z,18.30
2023-04-21T14:32:32.970Z,18.20
2023-04-21T14:35:03.690Z,18.20
2023-04-21T14:37:31.539Z,18.20
2023-04-21T14:39:59.390Z,18.30
2023-04-21T14:42:27.233Z,18.40
2023-04-21T14:44:55.122Z,18.40
2023-04-21T14:47:23.220Z,18.30
2023-04-21T14:49:55.617Z,18.20
2023-04-21T14:52:25.723Z,18.20
2023-04-21T14:54:54.040Z,18.20
2023-04-21T14:57:22.706Z,18.20
2023-04-21T14:59:51.326Z,18.20
2023-04-21T15:02:19.965Z,18.30
2023-04-21T15:04:48.252Z,18.30
2023-04-21T15:07:22.824Z,18.40
2023-04-21T15:09:51.538Z,18.30
2023-04-21T15:12:19.410Z,18.20
2023-04-21T15:14:47.354Z,18.30
2023-04-21T15:17:15.211Z,18.30
2023-04-21T15:19:43.091Z,18.30
2023-04-21T15:22:12.030Z,18.30
2023-04-21T15:24:41.316Z,18.30
2023-04-21T15:27:09.133Z,18.30
2023-04-21T15:29:37.228Z,18.40
2023-04-21T15:32:05.264Z,18.30
2023-04-21T15:34:33.094Z,18.30
2023-04-21T15:37:00.915Z,18.40
2023-04-21T15:39:28.729Z,18.50
2023-04-21T15:41:59.006Z,18.80
2023-04-21T15:44:26.975Z,19.60
2023-04-21T15:46:55.072Z,20.50
2023-04-21T15:49:25.720Z,20.40
2023-04-21T15:51:54.021Z,20.20
2023-04-21T15:54:22.612Z,20.10
2023-04-21T15:56:50.707Z,20.40
2023-04-21T15:59:19.890Z,20.50
2023-04-21T16:01:47.803Z,20.30
2023-04-21T16:04:16.423Z,20.20
2023-04-21T16:06:44.421Z,19.80
2023-04-21T16:09:12.274Z,19.50
2023-04-21T16:11:40.456Z,19.10
2023-04-21T16:14:08.493Z,18.90
2023-04-21T16:16:38.722Z,18.60
2023-04-21T16:19:06.778Z,18.50
2023-04-21T16:21:34.742Z,18.30
2023-04-21T16:24:03.368Z,18.30
2023-04-21T16:26:33.218Z,18.30
2023-04-21T16:29:01.042Z,18.20
2023-04-21T16:31:28.894Z,18.20
2023-04-21T16:33:59.693Z,18.10
2023-04-21T16:36:29.515Z,18.00
2023-04-21T16:38:57.287Z,17.90
2023-04-21T16:41:25.328Z,17.80
2023-04-21T16:43:53.577Z,17.70
2023-04-21T16:46:21.879Z,17.70
2023-04-21T16:48:49.775Z,17.60
2023-04-21T16:51:19.157Z,17.40
2023-04-21T16:53:47.426Z,17.40
2023-04-21T16:56:15.439Z,17.30
2023-04-21T16:58:43.257Z,17.10
2023-04-21T17:01:11.512Z,17.00
2023-04-21T17:03:39.463Z,16.90
2023-04-21T17:06:10.753Z,16.90
2023-04-21T17:08:40.336Z,16.90
2023-04-21T17:11:08.109Z,16.80
2023-04-21T17:13:38.814Z,16.70
2023-04-21T17:16:07.876Z,16.80
2023-04-21T17:18:36.609Z,16.70
2023-04-21T17:21:06.062Z,16.70
2023-04-21T17:23:33.901Z,16.50
2023-04-21T17:26:05.008Z,16.50
2023-04-21T17:28:33.473Z,16.40
2023-04-21T17:31:13.620Z,16.30
2023-04-21T17:33:43.444Z,16.30
2023-04-21T17:36:12.212Z,16.20
2023-04-21T17:38:41.774Z,16.20
2023-04-21T17:41:11.385Z,16.20
2023-04-21T17:43:39.196Z,16.20
2023-04-21T17:46:07.587Z,16.20
2023-04-21T17:48:36.190Z,16.20
2023-04-21T17:51:04.476Z,16.10
2023-04-21T17:53:32.484Z,16.10
2023-04-21T17:56:01.060Z,16.10
2023-04-21T17:58:30.338Z,16.00
2023-04-21T18:00:58.151Z,15.90
2023-04-21T18:03:27.311Z,15.90
2023-04-21T18:05:55.425Z,15.80
2023-04-21T18:08:23.494Z,15.70
2023-04-21T18:10:51.396Z,15.60
2023-04-21T18:13:19.238Z,15.50
2023-04-21T18:15:48.447Z,15.40
2023-04-21T18:18:16.300Z,15.40
2023-04-21T18:20:44.339Z,15.30
2023-04-21T18:23:12.463Z,15.20
2023-04-21T18:25:43.063Z,15.10
2023-04-21T18:28:12.503Z,14.90
2023-04-21T18:30:42.163Z,14.80
2023-04-21T18:33:11.941Z,14.70
2023-04-21T18:35:41.035Z,14.60
2023-04-21T18:38:11.475Z,14.50
2023-04-21T18:40:40.445Z,14.30
2023-04-21T18:43:09.607Z,14.20
2023-04-21T18:45:37.699Z,14.10
2023-04-21T18:48:06.178Z,13.90
2023-04-21T18:50:40.433Z,13.90
2023-04-21T18:53:09.522Z,13.80
2023-04-21T18:55:37.570Z,13.80
2023-04-21T18:58:05.421Z,13.70
2023-04-21T19:00:37.028Z,13.70
2023-04-21T19:03:05.939Z,13.70
2023-04-21T19:05:36.611Z,13.70
2023-04-21T19:08:04.420Z,13.60
2023-04-21T19:10:35.325Z,13.40
2023-04-21T19:13:03.191Z,13.30
2023-04-21T19:15:31.076Z,13.20
2023-04-21T19:17:58.930Z,13.10
2023-04-21T19:20:26.905Z,13.00
2023-04-21T19:22:56.080Z,12.80
2023-04-21T19:25:23.882Z,13.00
2023-04-21T19:27:51.708Z,13.20
2023-04-21T19:30:19.920Z,13.40
2023-04-21T19:32:47.827Z,13.50
2023-04-21T19:35:15.784Z,13.60
2023-04-21T19:37:43.743Z,13.60
2023-04-21T19:40:13.977Z,13.60
2023-04-21T19:42:42.040Z,13.70
2023-04-21T19:45:10.947Z,13.60
2023-04-21T19:47:38.853Z,13.60
2023-04-21T19:50:08.150Z,13.50
2023-04-21T19:52:35.951Z,13.50
2023-04-21T19:55:04.527Z,13.50
2023-04-21T19:57:33.697Z,13.60
2023-04-21T20:00:01.613Z,13.50
2023-04-21T20:02:29.642Z,13.50
2023-04-21T20:04:57.748Z,13.40
2023-04-21T20:07:25.683Z,13.30
2023-04-21T20:09:53.486Z,13.10
2023-04-21T20:12:21.308Z,13.10
2023-04-21T20:14:51.792Z,12.90
2023-04-21T20:17:19.797Z,12.80
2023-04-21T20:19:48.176Z,12.60
2023-04-21T20:22:16.337Z,12.60
2023-04-21T20:24:44.197Z,12.50
2023-04-21T20:27:12.042Z,12.50
2023-04-21T20:29:40.170Z,12.40
2023-04-21T20:32:10.335Z,12.40
2023-04-21T20:34:38.200Z,12.30
2023-04-21T20:37:06.170Z,12.30
2023-04-21T20:39:34.206Z,12.20
2023-04-21T20:42:12.689Z,12.20
2023-04-21T20:44:42.518Z,12.30
2023-04-21T20:47:12.880Z,12.20
2023-04-21T20:49:42.483Z,12.20
2023-04-21T20:52:10.798Z,12.10
2023-04-21T20:54:38.740Z,12.00
2023-04-21T20:57:07.491Z,12.00
2023-04-21T20:59:35.675Z,11.90
2023-04-21T21:02:04.098Z,11.80
2023-04-21T21:04:33.417Z,11.60
2023-04-21T21:07:02.598Z,11.60
2023-04-21T21:09:31.736Z,11.60
2023-04-21T21:11:59.669Z,11.50
2023-04-21T21:14:27.791Z,11.60
2023-04-21T21:16:56.299Z,11.50
2023-04-21T21:19:24.196Z,11.40
2023-04-21T21:21:53.353Z,11.40
2023-04-21T21:24:21.123Z,11.30
2023-04-21T21:26:48.934Z,11.20
2023-04-21T21:29:16.746Z,11.20
2023-04-21T21:31:44.589Z,11.30
2023-04-21T21:34:12.437Z,11.20
2023-04-21T21:36:40.221Z,11.10
2023-04-21T21:39:11.311Z,11.00
2023-04-21T21:41:39.697Z,11.00
2023-04-21T21:44:07.646Z,10.90
2023-04-21T21:46:35.597Z,10.90
2023-04-21T21:49:03.689Z,10.90
2023-04-21T21:51:31.457Z,10.80
2023-04-21T21:53:59.212Z,10.70
2023-04-21T21:56:28.488Z,10.60
2023-04-21T21:58:56.343Z,10.50
2023-04-21T22:01:24.421Z,10.50
2023-04-21T22:03:54.223Z,10.40
2023-04-21T22:06:24.280Z,10.30
2023-04-21T22:08:52.561Z,10.30
2023-04-21T22:11:20.662Z,10.20
2023-04-21T22:13:49.835Z,10.20
2023-04-21T22:16:18.413Z,10.20
2023-04-21T22:18:48.128Z,10.10
2023-04-21T22:21:16.152Z,10.10
2023-04-21T22:23:43.970Z,10.10
2023-04-21T22:26:11.769Z,10.00
2023-04-21T22:28:41.555Z,9.90
2023-04-21T22:31:11.457Z,9.80
2023-04-21T22:33:39.305Z,9.90
2023-04-21T22:36:09.830Z,9.90
2023-04-21T22:38:38.306Z,9.90
2023-04-21T22:41:06.418Z,9.80
2023-04-21T22:43:34.237Z,9.80
2023-04-21T22:46:03.111Z,9.90
2023-04-21T22:48:32.679Z,10.00
2023-04-21T22:51:01.361Z,10.00
2023-04-21T22:53:29.294Z,10.00
2023-04-21T22:55:57.295Z,10.00
2023-04-21T22:58:26.109Z,9.90
2023-04-21T23:00:54.121Z,9.90
2023-04-21T23:03:23.083Z,9.90
2023-04-21T23:05:52.505Z,9.70
2023-04-21T23:08:20.389Z,9.70
2023-04-21T23:10:49.175Z,9.70
2023-04-21T23:13:17.009Z,9.70
2023-04-21T23:15:44.900Z,9.50
2023-04-21T23:18:12.814Z,9.60
2023-04-21T23:20:40.695Z,9.60
2023-04-21T23:23:10.021Z,9.50
2023-04-21T23:25:37.905Z,9.50
2023-04-21T23:28:05.748Z,9.60
2023-04-21T23:30:34.111Z,9.60
2023-04-21T23:33:02.180Z,9.70
2023-04-21T23:35:30.199Z,9.60
2023-04-21T23:37:58.369Z,9.60
2023-04-21T23:40:27.706Z,9.40
2023-04-21T23:42:55.512Z,9.40
2023-04-21T23:45:23.810Z,9.30
2023-04-21T23:47:51.819Z,9.30
2023-04-21T23:50:19.766Z,9.30
2023-04-21T23:52:48.944Z,9.10
2023-04-21T23:55:16.738Z,9.10
2023-04-21T23:57:46.817Z,9.10
